createdAt,value
2022-09-21T00:01:41.206Z,99.90
2022-09-21T00:04:09.886Z,99.90
2022-09-21T00:06:38.828Z,99.90
2022-09-21T00:09:09.367Z,99.90
2022-09-21T00:11:41.452Z,99.90
2022-09-21T00:14:11.733Z,99.90
2022-09-21T00:16:41.731Z,99.90
2022-09-21T00:19:10.984Z,99.90
2022-09-21T00:21:39.571Z,99.90
2022-09-21T00:24:09.640Z,99.90
2022-09-21T00:26:38.167Z,99.90
2022-09-21T00:29:06.922Z,99.90
2022-09-21T00:31:36.258Z,99.90
2022-09-21T00:34:04.916Z,99.90
2022-09-21T00:36:33.456Z,99.90
2022-09-21T00:39:03.343Z,99.90
2022-09-21T00:41:33.199Z,99.90
2022-09-21T00:44:20.215Z,99.90
2022-09-21T00:46:49.371Z,99.90
2022-09-21T00:49:18.456Z,99.90
2022-09-21T00:51:47.778Z,99.90
2022-09-21T00:54:19.628Z,99.90
2022-09-21T00:56:48.310Z,99.90
2022-09-21T00:59:21.077Z,99.90
2022-09-21T01:01:50.431Z,99.90
2022-09-21T01:04:19.992Z,99.90
2022-09-21T01:06:48.987Z,99.90
2022-09-21T01:09:20.987Z,99.90
2022-09-21T01:12:08.819Z,99.90
2022-09-21T01:14:46.662Z,99.90
2022-09-21T01:17:15.380Z,99.90
2022-09-21T01:20:02.298Z,99.90
2022-09-21T01:22:40.088Z,99.90
2022-09-21T01:25:26.886Z,99.90
2022-09-21T01:27:55.531Z,99.90
2022-09-21T01:30:24.726Z,99.90
2022-09-21T01:32:53.424Z,99.90
2022-09-21T01:35:24.299Z,99.90
2022-09-21T01:38:07.589Z,99.90
2022-09-21T01:40:44.781Z,99.90
2022-09-21T01:43:17.166Z,99.90
2022-09-21T01:45:51.307Z,99.90
2022-09-21T01:48:21.227Z,99.90
2022-09-21T01:50:52.451Z,99.90
2022-09-21T01:53:33.429Z,99.90
2022-09-21T01:56:07.789Z,99.90
2022-09-21T01:58:47.959Z,99.90
2022-09-21T02:01:19.513Z,99.70
2022-09-21T02:03:51.410Z,99.40
2022-09-21T02:06:21.163Z,99.20
2022-09-21T02:08:50.045Z,98.40
2022-09-21T02:11:18.949Z,98.40
2022-09-21T02:13:49.209Z,98.20
2022-09-21T02:16:31.933Z,97.90
2022-09-21T02:19:19.527Z,98.00
2022-09-21T02:25:34.073Z,97.80
2022-09-21T02:28:10.283Z,97.90
2022-09-21T02:30:39.818Z,97.60
2022-09-21T02:33:11.738Z,97.70
2022-09-21T02:35:43.930Z,97.60
2022-09-21T02:38:24.133Z,97.40
2022-09-21T02:40:57.724Z,97.10
2022-09-21T02:43:34.151Z,97.30
2022-09-21T02:46:07.587Z,97.10
2022-09-21T02:48:39.688Z,96.90
2022-09-21T02:51:13.802Z,97.10
2022-09-21T02:53:43.567Z,96.80
2022-09-21T02:56:13.400Z,96.70
2022-09-21T02:58:45.087Z,96.90
2022-09-21T03:01:17.784Z,96.80
2022-09-21T03:03:46.839Z,96.60
2022-09-21T03:06:15.449Z,96.60
2022-09-21T03:08:44.320Z,96.40
2022-09-21T03:11:18.552Z,96.30
2022-09-21T03:13:47.996Z,96.20
2022-09-21T03:16:16.875Z,95.90
2022-09-21T03:18:50.392Z,95.40
2022-09-21T03:21:19.473Z,94.90
2022-09-21T03:23:48.284Z,94.60
2022-09-21T03:26:17.331Z,95.10
2022-09-21T03:28:46.397Z,94.80
2022-09-21T03:31:17.164Z,94.30
2022-09-21T03:33:46.458Z,94.20
2022-09-21T03:36:15.512Z,94.10
2022-09-21T03:38:44.466Z,93.80
2022-09-21T03:41:14.806Z,93.90
2022-09-21T03:43:43.672Z,93.30
2022-09-21T03:46:13.844Z,93.30
2022-09-21T03:48:44.069Z,92.80
2022-09-21T03:54:00.809Z,92.90
2022-09-21T03:56:39.317Z,93.10
2022-09-21T03:59:14.103Z,93.30
2022-09-21T04:01:43.745Z,92.90
2022-09-21T04:04:12.963Z,92.20
2022-09-21T04:06:42.644Z,92.20
2022-09-21T04:09:12.357Z,91.10
2022-09-21T04:11:41.434Z,91.10
2022-09-21T04:14:10.667Z,89.20
2022-09-21T04:16:40.127Z,87.90
2022-09-21T04:19:12.709Z,87.70
2022-09-21T04:21:41.516Z,88.90
2022-09-21T04:24:10.158Z,90.40
2022-09-21T04:26:39.190Z,90.90
2022-09-21T04:29:08.456Z,88.50
2022-09-21T04:31:37.254Z,89.30
2022-09-21T04:34:06.483Z,89.00
2022-09-21T04:36:44.379Z,88.20
2022-09-21T04:39:13.468Z,89.20
2022-09-21T04:41:43.634Z,85.80
2022-09-21T04:44:12.517Z,86.50
2022-09-21T04:46:41.411Z,83.00
2022-09-21T04:49:10.333Z,81.40
2022-09-21T04:51:39.099Z,80.30
2022-09-21T04:54:08.075Z,81.50
2022-09-21T04:56:36.829Z,78.20
2022-09-21T04:59:06.141Z,77.90
2022-09-21T05:01:35.107Z,76.30
2022-09-21T05:04:04.392Z,76.90
2022-09-21T05:06:34.126Z,76.30
2022-09-21T05:09:21.030Z,75.60
2022-09-21T05:11:49.685Z,76.80
2022-09-21T05:14:18.375Z,79.80
2022-09-21T05:16:53.554Z,79.60
2022-09-21T05:19:22.146Z,77.60
2022-09-21T05:21:50.959Z,80.00
2022-09-21T05:24:19.599Z,77.70
2022-09-21T05:26:48.947Z,79.20
2022-09-21T05:29:18.206Z,80.40
2022-09-21T05:31:47.294Z,76.70
2022-09-21T05:34:25.564Z,81.40
2022-09-21T05:37:06.427Z,81.70
2022-09-21T05:39:36.307Z,77.00
2022-09-21T05:42:05.182Z,79.30
2022-09-21T05:44:33.807Z,76.70
2022-09-21T05:47:26.048Z,78.40
2022-09-21T05:50:03.988Z,83.00
2022-09-21T05:52:40.786Z,77.20
2022-09-21T05:55:27.793Z,78.70
2022-09-21T05:57:56.569Z,78.60
2022-09-21T06:00:25.355Z,81.70
2022-09-21T06:03:16.907Z,78.80
2022-09-21T06:05:46.581Z,76.80
2022-09-21T06:08:15.260Z,82.30
2022-09-21T06:10:44.475Z,83.60
2022-09-21T06:13:18.715Z,82.90
2022-09-21T06:15:47.757Z,81.30
2022-09-21T06:18:19.006Z,81.20
2022-09-21T06:21:05.737Z,80.70
2022-09-21T06:23:34.985Z,80.50
2022-09-21T06:26:03.856Z,80.80
2022-09-21T06:28:32.664Z,82.00
2022-09-21T06:31:01.748Z,83.80
2022-09-21T06:33:32.244Z,82.00
2022-09-21T06:36:04.727Z,81.20
2022-09-21T06:38:36.372Z,80.80
2022-09-21T06:41:12.196Z,80.10
2022-09-21T06:43:43.216Z,78.40
2022-09-21T06:46:19.437Z,81.30
2022-09-21T06:48:48.766Z,81.20
2022-09-21T06:51:36.942Z,81.40
2022-09-21T06:54:09.945Z,81.30
2022-09-21T06:56:50.476Z,77.90
2022-09-21T06:59:20.214Z,79.70
2022-09-21T07:01:49.675Z,78.80
2022-09-21T07:04:23.145Z,77.30
2022-09-21T07:06:53.826Z,78.60
2022-09-21T07:12:18.511Z,79.80
2022-09-21T07:14:47.784Z,79.10
2022-09-21T07:17:19.447Z,79.00
2022-09-21T07:19:57.148Z,76.00
2022-09-21T07:22:26.240Z,74.90
2022-09-21T07:24:58.753Z,79.80
2022-09-21T07:27:28.201Z,74.40
2022-09-21T07:30:00.171Z,77.10
2022-09-21T07:32:29.126Z,73.50
2022-09-21T07:34:58.230Z,77.00
2022-09-21T07:37:27.232Z,80.60
2022-09-21T07:39:56.511Z,79.60
2022-09-21T07:42:27.027Z,80.10
2022-09-21T07:45:03.952Z,75.30
2022-09-21T07:47:36.157Z,73.10
2022-09-21T07:50:08.125Z,77.50
2022-09-21T07:52:38.856Z,78.00
2022-09-21T07:55:07.761Z,73.10
2022-09-21T07:57:54.292Z,76.00
2022-09-21T08:00:23.643Z,75.10
2022-09-21T08:02:52.659Z,73.20
2022-09-21T08:05:21.827Z,73.50
2022-09-21T08:07:50.801Z,78.40
2022-09-21T08:10:19.544Z,68.80
2022-09-21T08:12:48.438Z,71.50
2022-09-21T08:15:43.989Z,71.10
2022-09-21T08:18:11.125Z,75.40
2022-09-21T08:20:45.630Z,72.70
2022-09-21T08:23:14.618Z,72.60
2022-09-21T08:25:43.522Z,73.70
2022-09-21T08:28:12.445Z,71.40
2022-09-21T08:30:44.955Z,71.40
2022-09-21T08:33:27.325Z,77.40
2022-09-21T08:36:09.602Z,75.10
2022-09-21T08:39:27.234Z,70.10
2022-09-21T08:42:09.675Z,74.00
2022-09-21T08:44:43.241Z,76.20
2022-09-21T08:47:18.125Z,69.70
2022-09-21T08:49:51.334Z,70.10
2022-09-21T08:52:21.221Z,70.20
2022-09-21T08:54:53.106Z,75.20
2022-09-21T08:57:22.692Z,72.20
2022-09-21T08:59:52.042Z,70.20
2022-09-21T09:02:40.629Z,67.60
2022-09-21T09:05:09.487Z,73.10
2022-09-21T09:07:48.828Z,68.80
2022-09-21T09:10:21.199Z,73.20
2022-09-21T09:13:03.937Z,71.30
2022-09-21T09:15:58.850Z,68.70
2022-09-21T09:18:41.374Z,69.60
2022-09-21T09:21:20.978Z,69.40
2022-09-21T09:24:07.754Z,69.10
2022-09-21T09:26:43.950Z,69.30
2022-09-21T09:29:15.571Z,74.80
2022-09-21T09:31:45.397Z,72.10
2022-09-21T09:34:13.987Z,72.90
2022-09-21T09:36:58.396Z,70.20
2022-09-21T09:39:29.977Z,72.00
2022-09-21T09:42:21.271Z,71.10
2022-09-21T09:45:02.562Z,70.70
2022-09-21T09:47:37.579Z,74.90
2022-09-21T09:50:08.284Z,73.60
2022-09-21T09:52:37.184Z,73.60
2022-09-21T09:55:16.945Z,71.50
2022-09-21T09:57:45.654Z,72.30
2022-09-21T10:00:15.305Z,72.80
2022-09-21T10:02:50.639Z,71.70
2022-09-21T10:05:25.425Z,71.50
2022-09-21T10:07:54.443Z,71.70
2022-09-21T10:10:37.447Z,72.60
2022-09-21T10:13:18.624Z,74.00
2022-09-21T10:15:54.201Z,72.70
2022-09-21T10:18:26.972Z,72.60
2022-09-21T10:20:58.911Z,72.90
2022-09-21T10:23:28.340Z,72.60
2022-09-21T10:26:04.495Z,71.50
2022-09-21T10:28:33.119Z,73.00
2022-09-21T10:31:15.683Z,72.50
2022-09-21T10:33:49.127Z,72.60
2022-09-21T10:36:27.731Z,71.90
2022-09-21T10:38:56.279Z,73.20
2022-09-21T10:41:24.900Z,71.90
2022-09-21T10:43:55.762Z,72.60
2022-09-21T10:46:34.522Z,72.60
2022-09-21T10:49:04.218Z,73.20
2022-09-21T10:51:35.057Z,71.90
2022-09-21T10:54:09.860Z,72.60
2022-09-21T10:56:38.477Z,72.60
2022-09-21T10:59:21.360Z,72.80
2022-09-21T11:01:51.579Z,73.30
2022-09-21T11:04:26.164Z,73.30
2022-09-21T11:06:57.473Z,73.90
2022-09-21T11:09:31.388Z,73.80
2022-09-21T11:12:08.851Z,74.10
2022-09-21T11:14:44.483Z,74.20
2022-09-21T11:17:22.090Z,74.90
2022-09-21T11:20:03.025Z,74.40
2022-09-21T11:22:45.109Z,74.20
2022-09-21T11:25:32.409Z,74.50
2022-09-21T11:28:06.007Z,74.60
2022-09-21T11:30:43.179Z,75.20
2022-09-21T11:33:20.054Z,75.20
2022-09-21T11:35:58.590Z,75.90
2022-09-21T11:38:38.703Z,76.70
2022-09-21T11:41:12.591Z,77.30
2022-09-21T11:43:44.183Z,77.50
2022-09-21T11:46:12.784Z,77.90
2022-09-21T11:48:57.405Z,78.20
2022-09-21T11:51:39.611Z,78.30
2022-09-21T11:54:23.106Z,78.10
2022-09-21T11:56:54.078Z,78.10
2022-09-21T11:59:35.462Z,78.30
2022-09-21T12:02:23.073Z,78.50
2022-09-21T12:05:05.540Z,78.80
2022-09-21T12:07:52.508Z,78.80
2022-09-21T12:10:24.039Z,78.90
2022-09-21T12:13:02.680Z,79.00
2022-09-21T12:15:41.035Z,79.20
2022-09-21T12:18:16.298Z,79.40
2022-09-21T12:20:44.844Z,79.60
2022-09-21T12:23:20.605Z,79.70
2022-09-21T12:25:54.411Z,79.90
2022-09-21T12:28:27.825Z,80.00
2022-09-21T12:31:00.654Z,80.10
2022-09-21T12:33:29.864Z,80.50
2022-09-21T12:36:04.483Z,80.60
2022-09-21T12:38:51.693Z,80.70
2022-09-21T12:41:32.566Z,81.00
2022-09-21T12:44:23.000Z,81.00
2022-09-21T12:46:57.424Z,81.40
2022-09-21T12:49:29.416Z,81.30
2022-09-21T12:52:00.475Z,80.80
2022-09-21T12:54:32.324Z,80.30
2022-09-21T12:57:23.186Z,80.00
2022-09-21T13:00:02.060Z,80.70
2022-09-21T13:02:42.385Z,80.20
2022-09-21T13:05:26.275Z,81.70
2022-09-21T13:08:10.841Z,81.90
2022-09-21T13:10:51.766Z,82.00
2022-09-21T13:13:26.410Z,81.80
2022-09-21T13:15:55.931Z,81.90
2022-09-21T13:18:33.788Z,81.90
2022-09-21T13:21:16.502Z,81.90
2022-09-21T13:23:45.424Z,81.70
2022-09-21T13:26:15.323Z,81.70
2022-09-21T13:28:56.079Z,81.90
2022-09-21T13:31:40.811Z,82.00
2022-09-21T13:34:28.651Z,82.60
2022-09-21T13:37:26.304Z,82.40
2022-09-21T13:40:04.533Z,83.00
2022-09-21T13:42:36.107Z,82.80
2022-09-21T13:45:07.818Z,82.40
2022-09-21T13:47:42.796Z,82.10
2022-09-21T13:50:14.341Z,83.50
2022-09-21T13:52:47.387Z,83.50
2022-09-21T13:55:32.020Z,85.70
2022-09-21T13:58:05.745Z,88.20
2022-09-21T14:00:34.288Z,91.10
2022-09-21T14:03:05.937Z,90.30
2022-09-21T14:05:37.319Z,88.30
2022-09-21T14:08:20.195Z,88.80
2022-09-21T14:11:02.481Z,90.10
2022-09-21T14:13:34.068Z,90.90
2022-09-21T14:16:21.512Z,92.40
2022-09-21T14:18:50.106Z,90.80
2022-09-21T14:21:20.800Z,90.80
2022-09-21T14:24:08.053Z,90.80
2022-09-21T14:26:47.137Z,90.30
2022-09-21T14:29:40.775Z,91.10
2022-09-21T14:32:15.079Z,92.40
2022-09-21T14:34:45.648Z,93.60
2022-09-21T14:37:28.613Z,93.90
2022-09-21T14:39:58.553Z,92.80
2022-09-21T14:42:30.012Z,92.40
2022-09-21T14:45:01.503Z,92.90
2022-09-21T14:47:32.770Z,93.90
2022-09-21T14:50:12.969Z,94.30
2022-09-21T14:52:55.884Z,93.50
2022-09-21T14:55:56.984Z,94.00
2022-09-21T14:58:25.875Z,93.60
2022-09-21T15:00:55.753Z,94.20
2022-09-21T15:03:31.801Z,94.70
2022-09-21T15:06:32.464Z,94.70
2022-09-21T15:09:19.332Z,93.70
2022-09-21T15:11:53.060Z,93.50
2022-09-21T15:14:30.387Z,94.70
2022-09-21T15:17:03.215Z,94.20
2022-09-21T15:19:38.447Z,94.30
2022-09-21T15:22:20.356Z,94.60
2022-09-21T15:24:53.427Z,95.00
2022-09-21T15:27:26.514Z,94.90
2022-09-21T15:29:58.648Z,94.70
2022-09-21T15:32:38.841Z,95.20
2022-09-21T15:35:17.520Z,95.30
2022-09-21T15:37:49.256Z,95.50
2022-09-21T15:40:17.864Z,95.90
2022-09-21T15:43:03.228Z,95.10
2022-09-21T15:45:37.060Z,95.60
2022-09-21T15:48:14.616Z,95.50
2022-09-21T15:50:44.795Z,96.00
2022-09-21T15:53:20.847Z,95.40
2022-09-21T15:55:50.426Z,95.20
2022-09-21T15:58:29.311Z,94.50
2022-09-21T16:01:02.641Z,94.70
2022-09-21T16:03:32.761Z,93.80
2022-09-21T16:06:03.529Z,93.90
2022-09-21T16:08:36.592Z,94.10
2022-09-21T16:11:11.223Z,93.80
2022-09-21T16:13:57.655Z,94.20
2022-09-21T16:16:26.382Z,94.30
2022-09-21T16:18:56.926Z,94.20
2022-09-21T16:21:28.873Z,94.20
2022-09-21T16:23:58.523Z,93.80
2022-09-21T16:26:36.049Z,93.10
2022-09-21T16:29:19.732Z,93.20
2022-09-21T16:31:50.530Z,93.00
2022-09-21T16:34:23.837Z,93.20
2022-09-21T16:36:54.037Z,93.50
2022-09-21T16:39:23.846Z,93.20
2022-09-21T16:41:57.401Z,93.50
2022-09-21T16:44:27.243Z,94.00
2022-09-21T16:46:57.760Z,94.20
2022-09-21T16:49:30.456Z,93.90
2022-09-21T16:52:00.425Z,93.60
2022-09-21T16:54:29.318Z,94.30
2022-09-21T16:56:58.843Z,93.80
2022-09-21T16:59:28.030Z,93.40
2022-09-21T17:01:58.191Z,93.20
2022-09-21T17:04:29.496Z,93.10
2022-09-21T17:06:58.967Z,93.50
2022-09-21T17:09:36.074Z,93.00
2022-09-21T17:12:05.451Z,93.20
2022-09-21T17:14:36.555Z,93.40
2022-09-21T17:17:09.384Z,93.60
2022-09-21T17:19:37.992Z,93.50
2022-09-21T17:22:08.296Z,93.60
2022-09-21T17:24:52.897Z,93.40
2022-09-21T17:27:22.348Z,93.50
2022-09-21T17:29:51.050Z,93.70
2022-09-21T17:32:21.432Z,93.60
2022-09-21T17:34:56.867Z,93.60
2022-09-21T17:37:26.244Z,93.30
2022-09-21T17:39:54.977Z,93.30
2022-09-21T17:42:26.010Z,93.60
2022-09-21T17:45:00.732Z,93.60
2022-09-21T17:47:30.478Z,94.00
2022-09-21T17:50:08.151Z,94.70
2022-09-21T17:52:57.417Z,94.30
2022-09-21T17:55:26.147Z,94.20
2022-09-21T17:58:09.438Z,94.60
2022-09-21T18:00:57.320Z,94.80
2022-09-21T18:03:27.228Z,95.00
2022-09-21T18:06:01.849Z,95.10
2022-09-21T18:08:32.018Z,95.10
2022-09-21T18:11:19.151Z,94.90
2022-09-21T18:14:06.762Z,94.90
2022-09-21T18:16:42.961Z,95.10
2022-09-21T18:19:11.491Z,95.10
2022-09-21T18:21:42.170Z,95.00
2022-09-21T18:24:23.932Z,94.10
2022-09-21T18:26:55.331Z,93.80
2022-09-21T18:29:41.175Z,94.30
2022-09-21T18:32:28.276Z,93.90
2022-09-21T18:34:56.835Z,94.30
2022-09-21T18:37:34.282Z,94.50
2022-09-21T18:40:23.678Z,94.70
2022-09-21T18:42:52.853Z,95.00
2022-09-21T18:45:33.982Z,94.60
2022-09-21T18:48:17.079Z,94.70
2022-09-21T18:51:12.142Z,94.90
2022-09-21T18:53:46.375Z,94.80
2022-09-21T18:56:15.816Z,94.70
2022-09-21T18:58:44.456Z,94.80
2022-09-21T19:01:14.064Z,94.10
2022-09-21T19:03:44.957Z,94.30
2022-09-21T19:06:31.644Z,94.30
2022-09-21T19:09:12.251Z,94.60
2022-09-21T19:11:44.466Z,95.00
2022-09-21T19:14:25.254Z,95.30
2022-09-21T19:16:56.706Z,95.40
2022-09-21T19:19:31.595Z,95.90
2022-09-21T19:22:03.610Z,96.00
2022-09-21T19:24:41.353Z,95.00
2022-09-21T19:27:17.551Z,94.70
2022-09-21T19:30:06.544Z,95.00
2022-09-21T19:32:41.298Z,95.40
2022-09-21T19:35:16.422Z,95.60
2022-09-21T19:37:48.230Z,95.60
2022-09-21T19:40:18.179Z,95.70
2022-09-21T19:43:04.716Z,95.60
2022-09-21T19:45:39.540Z,95.70
2022-09-21T19:48:11.991Z,95.40
2022-09-21T19:50:55.767Z,95.60
2022-09-21T19:53:42.973Z,95.70
2022-09-21T19:56:31.862Z,95.70
2022-09-21T19:59:18.637Z,95.70
2022-09-21T20:01:53.751Z,95.70
2022-09-21T20:04:35.090Z,95.80
2022-09-21T20:07:09.034Z,96.20
2022-09-21T20:09:46.302Z,96.30
2022-09-21T20:12:27.203Z,96.20
2022-09-21T20:15:03.162Z,96.20
2022-09-21T20:17:42.902Z,96.40
2022-09-21T20:20:17.032Z,96.00
2022-09-21T20:22:46.067Z,96.50
2022-09-21T20:25:17.678Z,96.60
2022-09-21T20:27:46.350Z,96.30
2022-09-21T20:30:16.354Z,96.50
2022-09-21T20:32:46.308Z,97.20
2022-09-21T20:35:18.239Z,97.30
2022-09-21T20:37:47.183Z,97.30
2022-09-21T20:40:16.370Z,96.60
2022-09-21T20:42:45.626Z,96.00
2022-09-21T20:45:14.827Z,95.90
2022-09-21T20:47:43.406Z,95.50
2022-09-21T20:50:14.587Z,95.30
2022-09-21T20:52:43.981Z,96.50
2022-09-21T20:55:18.557Z,96.00
2022-09-21T20:57:47.142Z,96.30
2022-09-21T21:00:16.723Z,96.50
2022-09-21T21:02:45.630Z,96.30
2022-09-21T21:05:14.135Z,96.00
2022-09-21T21:07:44.790Z,96.40
2022-09-21T21:10:18.471Z,96.50
2022-09-21T21:12:46.967Z,96.10
2022-09-21T21:15:15.517Z,96.40
2022-09-21T21:17:50.002Z,96.40
2022-09-21T21:20:20.954Z,96.10
2022-09-21T21:22:53.378Z,97.00
2022-09-21T21:25:21.899Z,96.90
2022-09-21T21:27:52.958Z,96.90
2022-09-21T21:30:25.372Z,97.00
2022-09-21T21:32:54.468Z,96.50
2022-09-21T21:35:23.043Z,97.70
2022-09-21T21:37:52.095Z,98.00
2022-09-21T21:40:22.222Z,98.10
2022-09-21T21:42:50.828Z,97.80
2022-09-21T21:45:19.331Z,98.40
2022-09-21T21:47:53.092Z,98.00
2022-09-21T21:50:24.126Z,97.50
2022-09-21T21:52:52.658Z,98.00
2022-09-21T21:55:21.164Z,98.20
2022-09-21T21:57:49.687Z,98.40
2022-09-21T22:00:18.272Z,98.60
2022-09-21T22:02:47.604Z,98.00
2022-09-21T22:05:16.154Z,97.70
2022-09-21T22:07:44.695Z,97.70
2022-09-21T22:10:18.401Z,98.10
2022-09-21T22:12:46.962Z,98.00
2022-09-21T22:15:15.482Z,97.60
2022-09-21T22:17:43.971Z,97.70
2022-09-21T22:20:12.673Z,97.90
2022-09-21T22:22:41.206Z,97.20
2022-09-21T22:25:10.000Z,96.60
2022-09-21T22:27:38.659Z,96.50
2022-09-21T22:30:07.475Z,96.60
2022-09-21T22:32:35.973Z,97.40
2022-09-21T22:35:06.417Z,97.90
2022-09-21T22:37:34.898Z,98.30
2022-09-21T22:40:04.464Z,98.70
2022-09-21T22:42:33.007Z,98.90
2022-09-21T22:45:01.626Z,99.80
2022-09-21T22:47:30.106Z,99.50
2022-09-21T22:49:58.934Z,99.90
2022-09-21T22:52:27.444Z,99.30
2022-09-21T22:54:55.950Z,98.80
2022-09-21T22:57:24.504Z,99.10
2022-09-21T22:59:53.005Z,99.30
2022-09-21T23:02:21.815Z,99.30
2022-09-21T23:04:50.765Z,99.40
2022-09-21T23:07:19.290Z,99.60
2022-09-21T23:09:47.767Z,98.40
2022-09-21T23:12:16.290Z,98.00
2022-09-21T23:14:44.829Z,98.00
2022-09-21T23:17:13.375Z,98.40
2022-09-21T23:19:41.972Z,98.70
2022-09-21T23:22:10.934Z,99.20
2022-09-21T23:24:39.436Z,99.30
2022-09-21T23:27:10.157Z,99.50
2022-09-21T23:29:38.643Z,99.40
2022-09-21T23:32:07.533Z,99.60
2022-09-21T23:34:36.119Z,99.70
2022-09-21T23:37:04.630Z,99.80
2022-09-21T23:39:33.274Z,99.60
2022-09-21T23:42:01.832Z,99.50
2022-09-21T23:44:30.357Z,99.00
2022-09-21T23:46:58.905Z,99.50
2022-09-21T23:49:27.727Z,99.40
2022-09-21T23:51:56.211Z,99.90
2022-09-21T23:54:24.698Z,99.80
2022-09-21T23:56:54.042Z,99.80
2022-09-21T23:59:24.012Z,99.90
